sensor_id;sensor_type;location;lat;lon;timestamp;P1;durP1;ratioP1;P2;durP2;ratioP2
44572;SDS011;31762;45.420;10.072;2022-10-19T00:04:28;17.92;;;12.40;;
44572;SDS011;31762;45.420;10.072;2022-10-19T00:09:30;17.52;;;11.05;;
44572;SDS011;31762;45.420;10.072;2022-10-19T00:14:32;18.58;;;11.93;;
44572;SDS011;31762;45.420;10.072;2022-10-19T00:19:33;16.03;;;11.07;;
44572;SDS011;31762;45.420;10.072;2022-10-19T00:24:35;17.80;;;11.77;;
44572;SDS011;31762;45.420;10.072;2022-10-19T00:29:37;15.07;;;10.83;;
44572;SDS011;31762;45.420;10.072;2022-10-19T00:34:39;19.90;;;11.00;;
44572;SDS011;31762;45.420;10.072;2022-10-19T00:39:40;13.80;;;10.47;;
44572;SDS011;31762;45.420;10.072;2022-10-19T00:49:44;14.75;;;10.23;;
44572;SDS011;31762;45.420;10.072;2022-10-19T00:54:46;17.25;;;11.43;;
44572;SDS011;31762;45.420;10.072;2022-10-19T00:59:50;19.55;;;11.20;;
44572;SDS011;31762;45.420;10.072;2022-10-19T01:04:52;18.67;;;11.52;;
44572;SDS011;31762;45.420;10.072;2022-10-19T01:09:54;16.00;;;11.00;;
44572;SDS011;31762;45.420;10.072;2022-10-19T01:47:04;24.38;;;12.80;;
44572;SDS011;31762;45.420;10.072;2022-10-19T01:52:10;15.82;;;11.40;;
44572;SDS011;31762;45.420;10.072;2022-10-19T01:57:24;18.52;;;11.02;;
44572;SDS011;31762;45.420;10.072;2022-10-19T02:02:30;18.85;;;11.38;;
44572;SDS011;31762;45.420;10.072;2022-10-19T02:07:32;19.13;;;11.03;;
44572;SDS011;31762;45.420;10.072;2022-10-19T02:12:36;17.30;;;11.40;;
44572;SDS011;31762;45.420;10.072;2022-10-19T02:17:41;17.73;;;12.63;;
44572;SDS011;31762;45.420;10.072;2022-10-19T02:22:47;13.90;;;10.17;;
44572;SDS011;31762;45.420;10.072;2022-10-19T02:27:49;17.98;;;11.57;;
44572;SDS011;31762;45.420;10.072;2022-10-19T02:32:50;19.05;;;12.13;;
44572;SDS011;31762;45.420;10.072;2022-10-19T02:37:52;17.88;;;11.07;;
44572;SDS011;31762;45.420;10.072;2022-10-19T02:42:59;14.55;;;10.13;;
44572;SDS011;31762;45.420;10.072;2022-10-19T02:48:06;17.63;;;11.13;;
44572;SDS011;31762;45.420;10.072;2022-10-19T02:53:11;16.13;;;10.30;;
44572;SDS011;31762;45.420;10.072;2022-10-19T02:58:13;14.95;;;9.82;;
44572;SDS011;31762;45.420;10.072;2022-10-19T03:03:14;19.77;;;11.43;;
44572;SDS011;31762;45.420;10.072;2022-10-19T03:08:16;18.85;;;11.35;;
44572;SDS011;31762;45.420;10.072;2022-10-19T03:13:18;15.15;;;9.57;;
44572;SDS011;31762;45.420;10.072;2022-10-19T03:18:19;17.53;;;10.77;;
44572;SDS011;31762;45.420;10.072;2022-10-19T03:23:21;17.43;;;11.03;;
44572;SDS011;31762;45.420;10.072;2022-10-19T03:28:23;18.90;;;9.33;;
44572;SDS011;31762;45.420;10.072;2022-10-19T03:33:24;18.13;;;10.80;;
44572;SDS011;31762;45.420;10.072;2022-10-19T03:38:26;16.03;;;10.03;;
44572;SDS011;31762;45.420;10.072;2022-10-19T03:43:28;14.63;;;10.33;;
44572;SDS011;31762;45.420;10.072;2022-10-19T03:48:30;14.23;;;9.88;;
44572;SDS011;31762;45.420;10.072;2022-10-19T03:53:33;15.07;;;10.65;;
44572;SDS011;31762;45.420;10.072;2022-10-19T03:58:35;13.27;;;9.85;;
44572;SDS011;31762;45.420;10.072;2022-10-19T04:03:38;13.23;;;9.37;;
44572;SDS011;31762;45.420;10.072;2022-10-19T04:08:40;13.75;;;8.95;;
44572;SDS011;31762;45.420;10.072;2022-10-19T04:13:42;14.85;;;9.10;;
44572;SDS011;31762;45.420;10.072;2022-10-19T04:18:44;13.55;;;8.73;;
44572;SDS011;31762;45.420;10.072;2022-10-19T04:23:46;12.97;;;9.17;;
44572;SDS011;31762;45.420;10.072;2022-10-19T04:28:48;13.07;;;9.32;;
44572;SDS011;31762;45.420;10.072;2022-10-19T04:33:50;13.48;;;8.48;;
44572;SDS011;31762;45.420;10.072;2022-10-19T04:38:52;12.95;;;8.35;;
44572;SDS011;31762;45.420;10.072;2022-10-19T04:43:54;13.50;;;8.70;;
44572;SDS011;31762;45.420;10.072;2022-10-19T04:48:58;12.82;;;8.85;;
44572;SDS011;31762;45.420;10.072;2022-10-19T04:54:00;17.33;;;8.93;;
44572;SDS011;31762;45.420;10.072;2022-10-19T04:59:03;13.00;;;7.97;;
44572;SDS011;31762;45.420;10.072;2022-10-19T05:04:05;16.77;;;9.33;;
44572;SDS011;31762;45.420;10.072;2022-10-19T05:09:07;10.43;;;7.68;;
44572;SDS011;31762;45.420;10.072;2022-10-19T05:14:08;13.30;;;8.40;;
44572;SDS011;31762;45.420;10.072;2022-10-19T05:19:11;12.20;;;8.00;;
44572;SDS011;31762;45.420;10.072;2022-10-19T05:24:13;13.25;;;8.02;;
44572;SDS011;31762;45.420;10.072;2022-10-19T05:29:15;13.77;;;7.68;;
44572;SDS011;31762;45.420;10.072;2022-10-19T05:34:17;12.80;;;7.43;;
44572;SDS011;31762;45.420;10.072;2022-10-19T05:39:19;12.30;;;9.27;;
44572;SDS011;31762;45.420;10.072;2022-10-19T05:44:21;13.88;;;7.45;;
44572;SDS011;31762;45.420;10.072;2022-10-19T05:49:23;12.40;;;8.25;;
44572;SDS011;31762;45.420;10.072;2022-10-19T05:54:25;11.65;;;7.75;;
44572;SDS011;31762;45.420;10.072;2022-10-19T05:59:28;12.05;;;7.18;;
44572;SDS011;31762;45.420;10.072;2022-10-19T06:04:30;15.35;;;8.55;;
44572;SDS011;31762;45.420;10.072;2022-10-19T06:09:32;12.98;;;8.43;;
44572;SDS011;31762;45.420;10.072;2022-10-19T06:14:34;15.38;;;9.38;;
44572;SDS011;31762;45.420;10.072;2022-10-19T06:19:35;11.55;;;6.93;;
44572;SDS011;31762;45.420;10.072;2022-10-19T06:24:37;10.90;;;6.15;;
44572;SDS011;31762;45.420;10.072;2022-10-19T06:29:39;9.75;;;6.88;;
44572;SDS011;31762;45.420;10.072;2022-10-19T06:34:41;9.55;;;6.35;;
44572;SDS011;31762;45.420;10.072;2022-10-19T06:39:42;10.93;;;6.43;;
44572;SDS011;31762;45.420;10.072;2022-10-19T06:44:44;9.98;;;6.45;;
44572;SDS011;31762;45.420;10.072;2022-10-19T06:49:46;10.65;;;5.32;;
44572;SDS011;31762;45.420;10.072;2022-10-19T06:54:47;11.35;;;5.85;;
44572;SDS011;31762;45.420;10.072;2022-10-19T06:59:49;9.60;;;6.07;;
44572;SDS011;31762;45.420;10.072;2022-10-19T07:04:53;8.80;;;5.28;;
44572;SDS011;31762;45.420;10.072;2022-10-19T07:09:55;8.48;;;5.88;;
44572;SDS011;31762;45.420;10.072;2022-10-19T07:14:57;9.38;;;5.90;;
44572;SDS011;31762;45.420;10.072;2022-10-19T07:19:58;9.23;;;5.80;;
44572;SDS011;31762;45.420;10.072;2022-10-19T07:25:00;13.52;;;7.07;;
44572;SDS011;31762;45.420;10.072;2022-10-19T07:30:02;11.95;;;7.72;;
44572;SDS011;31762;45.420;10.072;2022-10-19T07:35:04;16.48;;;7.93;;
44572;SDS011;31762;45.420;10.072;2022-10-19T07:40:06;15.30;;;8.37;;
44572;SDS011;31762;45.420;10.072;2022-10-19T07:45:08;11.80;;;8.15;;
44572;SDS011;31762;45.420;10.072;2022-10-19T07:50:10;13.48;;;7.97;;
44572;SDS011;31762;45.420;10.072;2022-10-19T07:55:12;14.48;;;8.90;;
44572;SDS011;31762;45.420;10.072;2022-10-19T08:00:15;15.25;;;8.35;;
44572;SDS011;31762;45.420;10.072;2022-10-19T08:05:17;33.30;;;10.00;;
44572;SDS011;31762;45.420;10.072;2022-10-19T08:10:19;16.80;;;8.00;;
44572;SDS011;31762;45.420;10.072;2022-10-19T08:15:20;14.23;;;8.70;;
44572;SDS011;31762;45.420;10.072;2022-10-19T08:20:22;15.07;;;9.18;;
44572;SDS011;31762;45.420;10.072;2022-10-19T08:25:24;15.35;;;7.90;;
44572;SDS011;31762;45.420;10.072;2022-10-19T08:30:25;17.52;;;10.20;;
44572;SDS011;31762;45.420;10.072;2022-10-19T08:35:28;13.55;;;8.68;;
44572;SDS011;31762;45.420;10.072;2022-10-19T08:40:30;19.15;;;10.57;;
44572;SDS011;31762;45.420;10.072;2022-10-19T08:45:42;18.55;;;10.50;;
44572;SDS011;31762;45.420;10.072;2022-10-19T08:50:50;18.45;;;10.48;;
44572;SDS011;31762;45.420;10.072;2022-10-19T09:01:15;20.17;;;11.50;;
44572;SDS011;31762;45.420;10.072;2022-10-19T09:11:32;19.02;;;11.85;;
44572;SDS011;31762;45.420;10.072;2022-10-19T09:16:38;19.20;;;12.95;;
44572;SDS011;31762;45.420;10.072;2022-10-19T09:21:45;18.77;;;12.38;;
44572;SDS011;31762;45.420;10.072;2022-10-19T09:26:52;17.90;;;11.70;;
44572;SDS011;31762;45.420;10.072;2022-10-19T09:31:57;24.60;;;12.90;;
44572;SDS011;31762;45.420;10.072;2022-10-19T09:37:01;21.05;;;12.88;;
44572;SDS011;31762;45.420;10.072;2022-10-19T09:52:33;23.63;;;13.63;;
44572;SDS011;31762;45.420;10.072;2022-10-19T09:57:40;21.63;;;13.67;;
44572;SDS011;31762;45.420;10.072;2022-10-19T10:02:49;22.83;;;13.20;;
44572;SDS011;31762;45.420;10.072;2022-10-19T10:07:53;24.73;;;14.70;;
44572;SDS011;31762;45.420;10.072;2022-10-19T10:12:56;25.38;;;14.02;;
44572;SDS011;31762;45.420;10.072;2022-10-19T10:17:59;23.00;;;14.50;;
44572;SDS011;31762;45.420;10.072;2022-10-19T10:23:02;21.13;;;14.83;;
44572;SDS011;31762;45.420;10.072;2022-10-19T10:28:21;24.23;;;13.97;;
44572;SDS011;31762;45.420;10.072;2022-10-19T10:33:25;25.13;;;14.48;;
44572;SDS011;31762;45.420;10.072;2022-10-19T10:38:47;24.97;;;15.00;;
44572;SDS011;31762;45.420;10.072;2022-10-19T10:49:05;22.90;;;14.32;;
44572;SDS011;31762;45.420;10.072;2022-10-19T10:54:22;21.60;;;13.87;;
44572;SDS011;31762;45.420;10.072;2022-10-19T10:59:27;30.08;;;15.88;;
44572;SDS011;31762;45.420;10.072;2022-10-19T11:04:45;22.35;;;14.90;;
44572;SDS011;31762;45.420;10.072;2022-10-19T11:09:53;25.53;;;15.57;;
44572;SDS011;31762;45.420;10.072;2022-10-19T11:15:05;25.45;;;15.77;;
44572;SDS011;31762;45.420;10.072;2022-10-19T11:20:15;23.48;;;15.18;;
44572;SDS011;31762;45.420;10.072;2022-10-19T11:25:31;24.58;;;15.70;;
44572;SDS011;31762;45.420;10.072;2022-10-19T11:30:52;22.13;;;15.17;;
44572;SDS011;31762;45.420;10.072;2022-10-19T11:36:10;24.97;;;14.87;;
44572;SDS011;31762;45.420;10.072;2022-10-19T11:41:31;25.33;;;15.00;;
44572;SDS011;31762;45.420;10.072;2022-10-19T12:14:42;22.00;;;14.15;;
44572;SDS011;31762;45.420;10.072;2022-10-19T12:19:50;16.95;;;11.30;;
44572;SDS011;31762;45.420;10.072;2022-10-19T12:24:57;21.45;;;12.40;;
44572;SDS011;31762;45.420;10.072;2022-10-19T12:30:03;17.70;;;11.87;;
44572;SDS011;31762;45.420;10.072;2022-10-19T12:35:20;19.00;;;12.00;;
44572;SDS011;31762;45.420;10.072;2022-10-19T12:40:32;21.30;;;13.38;;
44572;SDS011;31762;45.420;10.072;2022-10-19T12:45:43;23.48;;;14.15;;
44572;SDS011;31762;45.420;10.072;2022-10-19T12:56:06;22.58;;;14.65;;
44572;SDS011;31762;45.420;10.072;2022-10-19T13:01:20;23.20;;;14.43;;
44572;SDS011;31762;45.420;10.072;2022-10-19T13:06:37;20.25;;;14.48;;
44572;SDS011;31762;45.420;10.072;2022-10-19T13:22:36;22.13;;;13.37;;
44572;SDS011;31762;45.420;10.072;2022-10-19T13:27:38;19.88;;;13.38;;
44572;SDS011;31762;45.420;10.072;2022-10-19T13:32:41;25.98;;;14.60;;
44572;SDS011;31762;45.420;10.072;2022-10-19T13:37:44;21.33;;;12.93;;
44572;SDS011;31762;45.420;10.072;2022-10-19T13:42:46;22.63;;;12.50;;
44572;SDS011;31762;45.420;10.072;2022-10-19T13:48:01;21.43;;;13.40;;
44572;SDS011;31762;45.420;10.072;2022-10-19T13:53:18;25.98;;;14.80;;
44572;SDS011;31762;45.420;10.072;2022-10-19T13:59:02;22.30;;;14.13;;
44572;SDS011;31762;45.420;10.072;2022-10-19T14:10:03;22.65;;;13.82;;
44572;SDS011;31762;45.420;10.072;2022-10-19T14:25:25;25.10;;;14.60;;
44572;SDS011;31762;45.420;10.072;2022-10-19T14:30:29;19.30;;;13.30;;
44572;SDS011;31762;45.420;10.072;2022-10-19T14:35:34;24.48;;;14.00;;
44572;SDS011;31762;45.420;10.072;2022-10-19T14:40:39;23.43;;;14.53;;
44572;SDS011;31762;45.420;10.072;2022-10-19T14:45:42;23.33;;;14.30;;
44572;SDS011;31762;45.420;10.072;2022-10-19T14:50:44;23.37;;;13.43;;
44572;SDS011;31762;45.420;10.072;2022-10-19T14:55:50;22.53;;;13.73;;
44572;SDS011;31762;45.420;10.072;2022-10-19T15:00:55;23.42;;;14.27;;
44572;SDS011;31762;45.420;10.072;2022-10-19T15:06:02;21.73;;;12.73;;
44572;SDS011;31762;45.420;10.072;2022-10-19T15:11:06;21.40;;;12.65;;
44572;SDS011;31762;45.420;10.072;2022-10-19T15:27:19;17.75;;;10.88;;
44572;SDS011;31762;45.420;10.072;2022-10-19T15:32:23;19.77;;;12.25;;
44572;SDS011;31762;45.420;10.072;2022-10-19T15:37:30;19.80;;;11.80;;
44572;SDS011;31762;45.420;10.072;2022-10-19T15:42:34;21.15;;;11.77;;
44572;SDS011;31762;45.420;10.072;2022-10-19T15:47:40;21.50;;;12.70;;
44572;SDS011;31762;45.420;10.072;2022-10-19T15:53:10;21.10;;;12.43;;
44572;SDS011;31762;45.420;10.072;2022-10-19T15:58:12;24.13;;;12.37;;
44572;SDS011;31762;45.420;10.072;2022-10-19T16:03:14;26.13;;;12.25;;
44572;SDS011;31762;45.420;10.072;2022-10-19T16:08:16;21.83;;;11.75;;
44572;SDS011;31762;45.420;10.072;2022-10-19T16:13:18;20.20;;;13.43;;
44572;SDS011;31762;45.420;10.072;2022-10-19T16:18:20;23.63;;;12.93;;
44572;SDS011;31762;45.420;10.072;2022-10-19T16:23:21;30.33;;;14.63;;
44572;SDS011;31762;45.420;10.072;2022-10-19T16:28:23;21.70;;;12.57;;
44572;SDS011;31762;45.420;10.072;2022-10-19T16:33:25;21.58;;;12.93;;
44572;SDS011;31762;45.420;10.072;2022-10-19T16:38:27;22.77;;;12.80;;
44572;SDS011;31762;45.420;10.072;2022-10-19T16:43:29;23.53;;;13.47;;
44572;SDS011;31762;45.420;10.072;2022-10-19T16:48:31;23.37;;;14.77;;
44572;SDS011;31762;45.420;10.072;2022-10-19T16:53:33;24.00;;;13.43;;
44572;SDS011;31762;45.420;10.072;2022-10-19T16:58:36;24.58;;;14.82;;
44572;SDS011;31762;45.420;10.072;2022-10-19T17:03:38;25.23;;;14.67;;
44572;SDS011;31762;45.420;10.072;2022-10-19T17:08:40;25.33;;;15.52;;
44572;SDS011;31762;45.420;10.072;2022-10-19T17:14:03;26.60;;;15.37;;
44572;SDS011;31762;45.420;10.072;2022-10-19T17:19:07;28.20;;;15.15;;
44572;SDS011;31762;45.420;10.072;2022-10-19T17:24:12;24.43;;;15.27;;
44572;SDS011;31762;45.420;10.072;2022-10-19T17:29:22;25.77;;;15.80;;
44572;SDS011;31762;45.420;10.072;2022-10-19T17:34:24;27.60;;;16.92;;
44572;SDS011;31762;45.420;10.072;2022-10-19T17:39:25;25.85;;;16.42;;
44572;SDS011;31762;45.420;10.072;2022-10-19T17:44:30;29.70;;;16.70;;
44572;SDS011;31762;45.420;10.072;2022-10-19T17:49:32;28.83;;;17.17;;
44572;SDS011;31762;45.420;10.072;2022-10-19T17:54:34;26.42;;;16.77;;
44572;SDS011;31762;45.420;10.072;2022-10-19T17:59:54;31.55;;;16.90;;
44572;SDS011;31762;45.420;10.072;2022-10-19T18:04:56;26.90;;;16.25;;
44572;SDS011;31762;45.420;10.072;2022-10-19T18:09:57;31.27;;;16.43;;
44572;SDS011;31762;45.420;10.072;2022-10-19T18:14:59;27.27;;;15.93;;
44572;SDS011;31762;45.420;10.072;2022-10-19T18:20:01;26.75;;;15.00;;
44572;SDS011;31762;45.420;10.072;2022-10-19T18:25:03;29.47;;;16.30;;
44572;SDS011;31762;45.420;10.072;2022-10-19T18:30:05;30.83;;;17.15;;
44572;SDS011;31762;45.420;10.072;2022-10-19T18:35:08;30.40;;;17.45;;
44572;SDS011;31762;45.420;10.072;2022-10-19T18:40:09;30.88;;;17.17;;
44572;SDS011;31762;45.420;10.072;2022-10-19T18:45:11;27.52;;;16.55;;
44572;SDS011;31762;45.420;10.072;2022-10-19T18:50:13;24.70;;;15.35;;
44572;SDS011;31762;45.420;10.072;2022-10-19T18:55:20;27.80;;;15.35;;
44572;SDS011;31762;45.420;10.072;2022-10-19T19:00:21;24.63;;;15.15;;
44572;SDS011;31762;45.420;10.072;2022-10-19T19:05:23;28.97;;;16.80;;
44572;SDS011;31762;45.420;10.072;2022-10-19T19:10:25;33.13;;;16.50;;
44572;SDS011;31762;45.420;10.072;2022-10-19T19:15:27;32.08;;;16.08;;
44572;SDS011;31762;45.420;10.072;2022-10-19T19:20:28;27.92;;;16.25;;
44572;SDS011;31762;45.420;10.072;2022-10-19T19:25:30;28.88;;;16.35;;
44572;SDS011;31762;45.420;10.072;2022-10-19T19:30:32;28.65;;;17.08;;
44572;SDS011;31762;45.420;10.072;2022-10-19T19:35:40;31.58;;;16.58;;
44572;SDS011;31762;45.420;10.072;2022-10-19T19:40:43;23.70;;;14.60;;
44572;SDS011;31762;45.420;10.072;2022-10-19T19:45:54;22.08;;;15.10;;
44572;SDS011;31762;45.420;10.072;2022-10-19T19:50:57;26.17;;;14.93;;
44572;SDS011;31762;45.420;10.072;2022-10-19T19:55:58;21.52;;;12.63;;
44572;SDS011;31762;45.420;10.072;2022-10-19T20:01:06;21.52;;;13.25;;
44572;SDS011;31762;45.420;10.072;2022-10-19T20:06:15;20.70;;;12.55;;
44572;SDS011;31762;45.420;10.072;2022-10-19T20:11:27;20.92;;;12.23;;
44572;SDS011;31762;45.420;10.072;2022-10-19T20:16:29;20.17;;;12.52;;
44572;SDS011;31762;45.420;10.072;2022-10-19T20:21:31;21.75;;;11.75;;
44572;SDS011;31762;45.420;10.072;2022-10-19T20:26:33;22.93;;;11.73;;
44572;SDS011;31762;45.420;10.072;2022-10-19T20:31:35;19.98;;;12.43;;
44572;SDS011;31762;45.420;10.072;2022-10-19T20:36:36;26.45;;;12.52;;
44572;SDS011;31762;45.420;10.072;2022-10-19T20:41:38;19.70;;;10.27;;
44572;SDS011;31762;45.420;10.072;2022-10-19T20:46:40;17.90;;;11.07;;
44572;SDS011;31762;45.420;10.072;2022-10-19T20:51:42;18.50;;;10.17;;
44572;SDS011;31762;45.420;10.072;2022-10-19T20:56:44;13.43;;;9.47;;
44572;SDS011;31762;45.420;10.072;2022-10-19T21:01:49;16.10;;;10.67;;
44572;SDS011;31762;45.420;10.072;2022-10-19T21:06:52;14.00;;;9.13;;
44572;SDS011;31762;45.420;10.072;2022-10-19T21:11:54;15.50;;;9.32;;
44572;SDS011;31762;45.420;10.072;2022-10-19T21:16:56;14.40;;;9.63;;
44572;SDS011;31762;45.420;10.072;2022-10-19T21:21:59;15.88;;;9.07;;
44572;SDS011;31762;45.420;10.072;2022-10-19T21:27:03;13.80;;;8.30;;
44572;SDS011;31762;45.420;10.072;2022-10-19T21:32:06;13.40;;;8.73;;
44572;SDS011;31762;45.420;10.072;2022-10-19T21:37:08;15.95;;;9.52;;
44572;SDS011;31762;45.420;10.072;2022-10-19T21:42:09;16.45;;;8.95;;
44572;SDS011;31762;45.420;10.072;2022-10-19T21:47:11;11.27;;;7.25;;
44572;SDS011;31762;45.420;10.072;2022-10-19T21:52:13;11.03;;;7.77;;
44572;SDS011;31762;45.420;10.072;2022-10-19T21:57:16;10.20;;;7.35;;
44572;SDS011;31762;45.420;10.072;2022-10-19T22:02:18;11.70;;;7.25;;
44572;SDS011;31762;45.420;10.072;2022-10-19T22:07:19;9.73;;;6.30;;
44572;SDS011;31762;45.420;10.072;2022-10-19T22:12:21;15.23;;;7.65;;
44572;SDS011;31762;45.420;10.072;2022-10-19T22:17:23;11.40;;;7.70;;
44572;SDS011;31762;45.420;10.072;2022-10-19T22:22:25;10.23;;;6.53;;
44572;SDS011;31762;45.420;10.072;2022-10-19T22:27:26;10.75;;;6.68;;
44572;SDS011;31762;45.420;10.072;2022-10-19T22:32:28;12.52;;;7.13;;
44572;SDS011;31762;45.420;10.072;2022-10-19T22:37:30;11.77;;;6.70;;
44572;SDS011;31762;45.420;10.072;2022-10-19T22:53:50;12.27;;;7.05;;
44572;SDS011;31762;45.420;10.072;2022-10-19T22:58:51;10.40;;;6.10;;
44572;SDS011;31762;45.420;10.072;2022-10-19T23:03:53;8.60;;;5.50;;
44572;SDS011;31762;45.420;10.072;2022-10-19T23:08:55;11.63;;;4.87;;
44572;SDS011;31762;45.420;10.072;2022-10-19T23:13:57;8.43;;;5.73;;
44572;SDS011;31762;45.420;10.072;2022-10-19T23:18:59;10.03;;;6.27;;
44572;SDS011;31762;45.420;10.072;2022-10-19T23:24:00;11.40;;;5.97;;
44572;SDS011;31762;45.420;10.072;2022-10-19T23:29:02;6.57;;;4.88;;
44572;SDS011;31762;45.420;10.072;2022-10-19T23:34:04;7.20;;;4.75;;
44572;SDS011;31762;45.420;10.072;2022-10-19T23:39:05;6.57;;;4.68;;
44572;SDS011;31762;45.420;10.072;2022-10-19T23:44:08;6.15;;;4.22;;
44572;SDS011;31762;45.420;10.072;2022-10-19T23:49:10;7.80;;;5.05;;
44572;SDS011;31762;45.420;10.072;2022-10-19T23:54:12;11.18;;;4.75;;
44572;SDS011;31762;45.420;10.072;2022-10-19T23:59:13;8.80;;;4.68;;
